RPA5625 KMKE-KLGA
Flight info
| Callsign | RPA5625 |
|---|---|
| Flight time | 1h 45m |
| Altitude | 35000 |
| Route | SQUIB HAUCK HRRSH HOCKE Q816 KELTI NABOR RAHKS VADDR1 |
| Aircraft | E75L/M-SDE3GILORVW/S |
Departure
| Time | 2026-04-26 16:46 |
|---|---|
| Airport | General Mitchell International Airport (KMKE) |
Arrival
| Time | 2026-04-26 18:31 |
|---|---|
| Airport | LaGuardia Airport (KLGA) |
| Time | Latitude | Longitude | Altitude | Speed | Heading |
|---|---|---|---|---|---|
| 2026-04-26 15:41 | 42.94869 | -87.89816 | 686 ft | 0 kts | 255° |
| 2026-04-26 16:01 | 42.94871 | -87.89805 | 686 ft | 4 kts | 255° |
| 2026-04-26 16:01 | 42.94877 | -87.89775 | 680 ft | 2 kts | 255° |
| 2026-04-26 16:01 | 42.94883 | -87.89741 | 682 ft | 4 kts | 257° |
| 2026-04-26 16:01 | 42.94892 | -87.89710 | 680 ft | 4 kts | 217° |
| 2026-04-26 16:02 | 42.94914 | -87.89705 | 684 ft | 4 kts | 180° |
| 2026-04-26 16:02 | 42.94921 | -87.89705 | 684 ft | 0 kts | 180° |
| 2026-04-26 16:05 | 42.94914 | -87.89705 | 684 ft | 2 kts | 180° |
| 2026-04-26 16:05 | 42.94899 | -87.89705 | 682 ft | 0 kts | 180° |
| 2026-04-26 16:06 | 42.94896 | -87.89705 | 681 ft | 1 kts | 180° |
| 2026-04-26 16:06 | 42.94885 | -87.89705 | 681 ft | 0 kts | 180° |
| 2026-04-26 16:06 | 42.94883 | -87.89705 | 682 ft | 0 kts | 181° |
| 2026-04-26 16:07 | 42.94881 | -87.89705 | 683 ft | 0 kts | 180° |
| 2026-04-26 16:09 | 42.94880 | -87.89705 | 686 ft | 0 kts | 180° |
| 2026-04-26 16:09 | 42.94847 | -87.89709 | 686 ft | 9 kts | 186° |
| 2026-04-26 16:10 | 42.94778 | -87.89721 | 686 ft | 11 kts | 187° |
| 2026-04-26 16:10 | 42.94698 | -87.89735 | 686 ft | 12 kts | 186° |
| 2026-04-26 16:10 | 42.94658 | -87.89741 | 683 ft | 4 kts | 187° |
| 2026-04-26 16:10 | 42.94652 | -87.89742 | 683 ft | 0 kts | 188° |
| 2026-04-26 16:11 | 42.94651 | -87.89742 | 686 ft | 0 kts | 188° |
| 2026-04-26 16:11 | 42.94639 | -87.89745 | 683 ft | 5 kts | 192° |
| 2026-04-26 16:12 | 42.94591 | -87.89787 | 685 ft | 10 kts | 233° |
| 2026-04-26 16:12 | 42.94552 | -87.89877 | 686 ft | 12 kts | 241° |
| 2026-04-26 16:12 | 42.94487 | -87.90115 | 682 ft | 15 kts | 252° |
| 2026-04-26 16:13 | 42.94461 | -87.90257 | 686 ft | 16 kts | 264° |
| 2026-04-26 16:13 | 42.94428 | -87.90405 | 682 ft | 17 kts | 251° |
| 2026-04-26 16:13 | 42.94392 | -87.90550 | 686 ft | 16 kts | 244° |
| 2026-04-26 16:13 | 42.94362 | -87.90665 | 686 ft | 13 kts | 269° |
| 2026-04-26 16:14 | 42.94351 | -87.90749 | 683 ft | 4 kts | 175° |
| 2026-04-26 16:14 | 42.94344 | -87.90733 | 686 ft | 0 kts | 88° |
| 2026-04-26 16:23 | 42.94344 | -87.90732 | 686 ft | 0 kts | 88° |
| 2026-04-26 16:23 | 42.94344 | -87.90730 | 686 ft | 0 kts | 88° |
| 2026-04-26 16:37 | 42.94344 | -87.90724 | 683 ft | 3 kts | 88° |
| 2026-04-26 16:37 | 42.94325 | -87.90689 | 682 ft | 7 kts | 148° |
| 2026-04-26 16:37 | 42.94286 | -87.90702 | 686 ft | 7 kts | 244° |
| 2026-04-26 16:38 | 42.94266 | -87.90785 | 686 ft | 11 kts | 251° |
| 2026-04-26 16:38 | 42.94238 | -87.90899 | 683 ft | 15 kts | 251° |
| 2026-04-26 16:38 | 42.94201 | -87.91048 | 684 ft | 18 kts | 252° |
| 2026-04-26 16:38 | 42.94159 | -87.91222 | 686 ft | 19 kts | 251° |
| 2026-04-26 16:39 | 42.94116 | -87.91397 | 686 ft | 20 kts | 251° |
| 2026-04-26 16:39 | 42.94072 | -87.91578 | 686 ft | 17 kts | 251° |
| 2026-04-26 16:39 | 42.94044 | -87.91694 | 686 ft | 12 kts | 252° |
| 2026-04-26 16:39 | 42.94037 | -87.91722 | 684 ft | 0 kts | 251° |
| 2026-04-26 16:40 | 42.94036 | -87.91726 | 684 ft | 1 kts | 251° |
| 2026-04-26 16:40 | 42.94031 | -87.91746 | 686 ft | 3 kts | 251° |
| 2026-04-26 16:40 | 42.94018 | -87.91780 | 685 ft | 5 kts | 229° |
| 2026-04-26 16:41 | 42.94009 | -87.91788 | 682 ft | 0 kts | 206° |
| 2026-04-26 16:45 | 42.94005 | -87.91791 | 684 ft | 3 kts | 201° |
| 2026-04-26 16:45 | 42.93965 | -87.91789 | 686 ft | 8 kts | 159° |
| 2026-04-26 16:45 | 42.93918 | -87.91745 | 686 ft | 8 kts | 104° |
| 2026-04-26 16:45 | 42.93930 | -87.91686 | 683 ft | 4 kts | 71° |
| 2026-04-26 16:46 | 42.93954 | -87.91588 | 686 ft | 36 kts | 72° |
| 2026-04-26 16:46 | 42.94122 | -87.90900 | 686 ft | 115 kts | 71° |
| 2026-04-26 16:46 | 42.94446 | -87.89540 | 775 ft | 175 kts | 74° |
| 2026-04-26 16:46 | 42.94840 | -87.87919 | 1601 ft | 189 kts | 72° |
| 2026-04-26 16:47 | 42.95276 | -87.86172 | 2684 ft | 202 kts | 73° |
| 2026-04-26 16:47 | 42.95743 | -87.84297 | 3906 ft | 213 kts | 74° |
| 2026-04-26 16:47 | 42.96208 | -87.82272 | 4636 ft | 240 kts | 76° |
| 2026-04-26 16:47 | 42.96753 | -87.79904 | 4894 ft | 282 kts | 76° |
| 2026-04-26 16:48 | 42.97001 | -87.77078 | 5021 ft | 319 kts | 94° |
| 2026-04-26 16:48 | 42.96792 | -87.74067 | 5171 ft | 317 kts | 98° |
| 2026-04-26 16:48 | 42.96562 | -87.71025 | 5061 ft | 318 kts | 97° |
| 2026-04-26 16:48 | 42.96354 | -87.68131 | 5301 ft | 292 kts | 97° |
| 2026-04-26 16:49 | 42.96161 | -87.65304 | 5925 ft | 311 kts | 97° |
| 2026-04-26 16:49 | 42.95967 | -87.62368 | 6675 ft | 306 kts | 97° |
| 2026-04-26 16:49 | 42.95775 | -87.59471 | 7715 ft | 306 kts | 97° |
| 2026-04-26 16:49 | 42.95593 | -87.56587 | 8862 ft | 304 kts | 97° |
| 2026-04-26 16:50 | 42.95407 | -87.53729 | 10047 ft | 300 kts | 97° |
| 2026-04-26 16:50 | 42.95215 | -87.50831 | 10748 ft | 311 kts | 97° |
| 2026-04-26 16:50 | 42.95011 | -87.47862 | 11624 ft | 317 kts | 97° |
| 2026-04-26 16:50 | 42.94802 | -87.44837 | 12489 ft | 323 kts | 97° |
| 2026-04-26 16:51 | 42.94590 | -87.41759 | 13398 ft | 329 kts | 97° |
| 2026-04-26 16:51 | 42.94368 | -87.38616 | 14304 ft | 336 kts | 98° |
| 2026-04-26 16:51 | 42.94141 | -87.35420 | 15177 ft | 342 kts | 98° |
| 2026-04-26 16:51 | 42.93905 | -87.32162 | 16039 ft | 348 kts | 98° |
| 2026-04-26 16:52 | 42.93663 | -87.28856 | 16867 ft | 353 kts | 98° |
| 2026-04-26 16:52 | 42.93498 | -87.26633 | 17403 ft | 357 kts | 98° |
| 2026-04-26 16:52 | 42.93155 | -87.22072 | 18474 ft | 365 kts | 99° |
| 2026-04-26 16:52 | 42.92893 | -87.18637 | 19160 ft | 371 kts | 99° |
| 2026-04-26 16:53 | 42.92620 | -87.15109 | 19863 ft | 377 kts | 98° |
| 2026-04-26 16:53 | 42.92340 | -87.11521 | 20561 ft | 383 kts | 98° |
| 2026-04-26 16:53 | 42.92052 | -87.07885 | 21216 ft | 388 kts | 98° |
| 2026-04-26 16:53 | 42.91926 | -87.04175 | 21825 ft | 395 kts | 90° |
| 2026-04-26 16:54 | 42.92075 | -87.00410 | 22419 ft | 400 kts | 88° |
| 2026-04-26 16:54 | 42.92213 | -86.96593 | 23016 ft | 405 kts | 89° |
| 2026-04-26 16:54 | 42.92350 | -86.92735 | 23608 ft | 410 kts | 88° |
| 2026-04-26 16:54 | 42.92484 | -86.88826 | 24159 ft | 414 kts | 88° |
| 2026-04-26 16:55 | 42.92618 | -86.84891 | 24723 ft | 417 kts | 88° |
| 2026-04-26 16:55 | 42.92749 | -86.80923 | 25290 ft | 420 kts | 88° |
| 2026-04-26 16:55 | 42.92880 | -86.76920 | 25828 ft | 423 kts | 88° |
| 2026-04-26 16:55 | 42.93011 | -86.72890 | 26358 ft | 427 kts | 88° |
| 2026-04-26 16:56 | 42.93269 | -86.64731 | 27365 ft | 433 kts | 87° |
| 2026-04-26 16:56 | 42.93397 | -86.60611 | 27825 ft | 436 kts | 87° |
| 2026-04-26 16:56 | 42.93524 | -86.56455 | 28294 ft | 440 kts | 87° |
| 2026-04-26 16:57 | 42.93650 | -86.52289 | 28816 ft | 441 kts | 86° |
| 2026-04-26 16:57 | 42.93776 | -86.48094 | 29273 ft | 444 kts | 86° |
| 2026-04-26 16:57 | 42.94025 | -86.39622 | 30183 ft | 450 kts | 86° |
| 2026-04-26 16:58 | 42.94149 | -86.35336 | 30591 ft | 453 kts | 86° |
| 2026-04-26 16:58 | 42.94231 | -86.32488 | 30813 ft | 455 kts | 86° |
| 2026-04-26 16:58 | 42.94516 | -86.22371 | 31623 ft | 462 kts | 86° |
| 2026-04-26 16:59 | 42.94637 | -86.17971 | 31935 ft | 464 kts | 86° |
| 2026-04-26 16:59 | 42.94881 | -86.09129 | 32585 ft | 467 kts | 85° |
| 2026-04-26 17:00 | 42.95119 | -86.00281 | 33317 ft | 467 kts | 85° |
| 2026-04-26 17:00 | 42.95345 | -85.91432 | 34040 ft | 466 kts | 85° |
| 2026-04-26 17:00 | 42.95458 | -85.87011 | 34368 ft | 466 kts | 85° |
| 2026-04-26 17:01 | 42.95570 | -85.82594 | 34652 ft | 466 kts | 85° |
| 2026-04-26 17:01 | 42.95682 | -85.78166 | 34932 ft | 466 kts | 85° |
| 2026-04-26 17:01 | 42.95794 | -85.73742 | 35106 ft | 469 kts | 85° |
| 2026-04-26 17:01 | 42.95904 | -85.69318 | 35117 ft | 476 kts | 85° |
| 2026-04-26 17:02 | 42.96151 | -85.60147 | 35154 ft | 488 kts | 82° |
| 2026-04-26 17:02 | 42.97523 | -85.51032 | 35222 ft | 494 kts | 73° |
| 2026-04-26 17:03 | 42.99087 | -85.41880 | 35258 ft | 495 kts | 73° |
| 2026-04-26 17:03 | 43.00627 | -85.32769 | 35202 ft | 491 kts | 73° |
| 2026-04-26 17:04 | 43.02153 | -85.23664 | 35194 ft | 492 kts | 73° |
| 2026-04-26 17:04 | 43.03670 | -85.14551 | 35192 ft | 492 kts | 74° |
| 2026-04-26 17:05 | 43.05180 | -85.05437 | 35200 ft | 492 kts | 74° |
| 2026-04-26 17:05 | 43.06678 | -84.96322 | 35200 ft | 490 kts | 75° |
| 2026-04-26 17:06 | 43.08158 | -84.87283 | 35204 ft | 490 kts | 75° |
| 2026-04-26 17:06 | 43.09639 | -84.78171 | 35205 ft | 490 kts | 75° |
| 2026-04-26 17:07 | 43.11114 | -84.69059 | 35202 ft | 491 kts | 75° |
| 2026-04-26 17:07 | 43.12584 | -84.59935 | 35213 ft | 490 kts | 75° |
| 2026-04-26 17:08 | 43.14051 | -84.50809 | 35213 ft | 490 kts | 75° |
| 2026-04-26 17:08 | 43.15513 | -84.41682 | 35215 ft | 490 kts | 75° |
| 2026-04-26 17:09 | 43.16487 | -84.35579 | 35217 ft | 490 kts | 75° |
| 2026-04-26 17:09 | 43.18416 | -84.23419 | 35216 ft | 489 kts | 75° |
| 2026-04-26 17:10 | 43.19854 | -84.14299 | 35217 ft | 490 kts | 75° |
| 2026-04-26 17:10 | 43.21281 | -84.05178 | 35216 ft | 490 kts | 75° |
| 2026-04-26 17:11 | 43.22705 | -83.96043 | 35224 ft | 490 kts | 75° |
| 2026-04-26 17:11 | 43.23933 | -83.86912 | 35236 ft | 490 kts | 83° |
| 2026-04-26 17:12 | 43.24250 | -83.72861 | 35222 ft | 491 kts | 86° |
| 2026-04-26 17:13 | 43.24518 | -83.60370 | 35216 ft | 491 kts | 86° |
| 2026-04-26 17:14 | 43.24853 | -83.44804 | 35217 ft | 491 kts | 86° |
| 2026-04-26 17:14 | 43.25114 | -83.32283 | 35218 ft | 491 kts | 86° |
| 2026-04-26 17:15 | 43.25393 | -83.18243 | 35215 ft | 491 kts | 86° |
| 2026-04-26 17:16 | 43.25568 | -83.08943 | 35218 ft | 490 kts | 86° |
| 2026-04-26 17:16 | 43.25739 | -82.99599 | 35216 ft | 490 kts | 86° |
| 2026-04-26 17:17 | 43.25906 | -82.90239 | 35216 ft | 490 kts | 87° |
| 2026-04-26 17:17 | 43.26070 | -82.80889 | 35226 ft | 490 kts | 87° |
| 2026-04-26 17:18 | 43.26220 | -82.71551 | 35225 ft | 489 kts | 87° |
| 2026-04-26 17:18 | 43.26402 | -82.62219 | 35233 ft | 489 kts | 86° |
| 2026-04-26 17:19 | 43.26687 | -82.48227 | 35244 ft | 489 kts | 86° |
| 2026-04-26 17:19 | 43.26867 | -82.38959 | 35246 ft | 489 kts | 86° |
| 2026-04-26 17:20 | 43.27015 | -82.31112 | 35241 ft | 490 kts | 86° |
| 2026-04-26 17:20 | 43.27210 | -82.20246 | 35243 ft | 490 kts | 86° |
| 2026-04-26 17:21 | 43.27369 | -82.10882 | 35244 ft | 490 kts | 86° |
| 2026-04-26 17:21 | 43.27520 | -82.01502 | 35237 ft | 490 kts | 86° |
| 2026-04-26 17:22 | 43.27664 | -81.92199 | 35228 ft | 490 kts | 86° |
| 2026-04-26 17:22 | 43.27800 | -81.82836 | 35229 ft | 490 kts | 86° |
| 2026-04-26 17:23 | 43.27929 | -81.73468 | 35227 ft | 490 kts | 86° |
| 2026-04-26 17:23 | 43.28050 | -81.64108 | 35221 ft | 490 kts | 86° |
| 2026-04-26 17:24 | 43.28164 | -81.54760 | 35219 ft | 489 kts | 86° |
| 2026-04-26 17:24 | 43.28270 | -81.45424 | 35218 ft | 490 kts | 86° |
| 2026-04-26 17:25 | 43.28370 | -81.36142 | 35218 ft | 490 kts | 86° |
| 2026-04-26 17:25 | 43.28465 | -81.26787 | 35222 ft | 489 kts | 86° |
| 2026-04-26 17:26 | 43.28554 | -81.17454 | 35220 ft | 489 kts | 86° |
| 2026-04-26 17:26 | 43.28641 | -81.08120 | 35211 ft | 490 kts | 86° |
| 2026-04-26 17:27 | 43.28719 | -80.98779 | 35226 ft | 490 kts | 87° |
| 2026-04-26 17:27 | 43.28790 | -80.89417 | 35226 ft | 490 kts | 87° |
| 2026-04-26 17:28 | 43.28854 | -80.80071 | 35221 ft | 490 kts | 87° |
| 2026-04-26 17:28 | 43.28913 | -80.70779 | 35222 ft | 490 kts | 87° |
| 2026-04-26 17:29 | 43.28948 | -80.62941 | 35227 ft | 490 kts | 87° |
| 2026-04-26 17:29 | 43.29003 | -80.52062 | 35228 ft | 490 kts | 87° |
| 2026-04-26 17:30 | 43.29036 | -80.42703 | 35226 ft | 490 kts | 87° |
| 2026-04-26 17:30 | 43.29062 | -80.33344 | 35225 ft | 490 kts | 87° |
| 2026-04-26 17:31 | 43.29080 | -80.23983 | 35228 ft | 490 kts | 87° |
| 2026-04-26 17:31 | 43.29084 | -80.14684 | 35235 ft | 491 kts | 87° |
| 2026-04-26 17:32 | 43.29077 | -80.05315 | 35234 ft | 490 kts | 87° |
| 2026-04-26 17:32 | 43.29072 | -79.95952 | 35233 ft | 490 kts | 87° |
| 2026-04-26 17:33 | 43.29053 | -79.86578 | 35237 ft | 491 kts | 87° |
| 2026-04-26 17:34 | 43.29019 | -79.72588 | 35252 ft | 490 kts | 87° |
| 2026-04-26 17:34 | 43.28992 | -79.63227 | 35271 ft | 490 kts | 87° |
| 2026-04-26 17:35 | 43.28954 | -79.53866 | 35264 ft | 491 kts | 88° |
| 2026-04-26 17:35 | 43.28903 | -79.44509 | 35256 ft | 490 kts | 88° |
| 2026-04-26 17:36 | 43.28844 | -79.35153 | 35249 ft | 490 kts | 87° |
| 2026-04-26 17:36 | 43.28779 | -79.25792 | 35242 ft | 490 kts | 87° |
| 2026-04-26 17:37 | 43.28722 | -79.16432 | 35241 ft | 490 kts | 88° |
| 2026-04-26 17:37 | 43.28620 | -79.07072 | 35246 ft | 491 kts | 89° |
| 2026-04-26 17:38 | 43.28286 | -78.93022 | 35241 ft | 492 kts | 92° |
| 2026-04-26 17:38 | 43.27096 | -78.83728 | 35250 ft | 495 kts | 98° |
| 2026-04-26 17:39 | 43.25788 | -78.74453 | 35257 ft | 495 kts | 98° |
| 2026-04-26 17:39 | 43.24495 | -78.65239 | 35236 ft | 495 kts | 98° |
| 2026-04-26 17:40 | 43.23409 | -78.57486 | 35260 ft | 494 kts | 98° |
| 2026-04-26 17:40 | 43.21896 | -78.46724 | 35258 ft | 495 kts | 98° |
| 2026-04-26 17:41 | 43.20587 | -78.37457 | 35252 ft | 495 kts | 98° |
| 2026-04-26 17:41 | 43.19273 | -78.28201 | 35248 ft | 495 kts | 98° |
| 2026-04-26 17:42 | 43.17954 | -78.18953 | 35243 ft | 495 kts | 98° |
| 2026-04-26 17:42 | 43.16626 | -78.09707 | 35244 ft | 495 kts | 98° |
| 2026-04-26 17:43 | 43.15294 | -78.00466 | 35245 ft | 495 kts | 98° |
| 2026-04-26 17:43 | 43.13957 | -77.91222 | 35248 ft | 495 kts | 98° |
| 2026-04-26 17:44 | 43.12611 | -77.81981 | 35247 ft | 495 kts | 98° |
| 2026-04-26 17:44 | 43.11268 | -77.72769 | 35245 ft | 495 kts | 98° |
| 2026-04-26 17:45 | 43.09908 | -77.63523 | 35246 ft | 495 kts | 98° |
| 2026-04-26 17:45 | 43.08547 | -77.54275 | 35258 ft | 496 kts | 98° |
| 2026-04-26 17:46 | 43.07174 | -77.45030 | 35253 ft | 496 kts | 98° |
| 2026-04-26 17:46 | 43.05790 | -77.35795 | 35247 ft | 496 kts | 98° |
| 2026-04-26 17:47 | 43.04639 | -77.28097 | 35230 ft | 498 kts | 98° |
| 2026-04-26 17:47 | 43.03007 | -77.17303 | 35251 ft | 496 kts | 98° |
| 2026-04-26 17:48 | 43.01606 | -77.08056 | 35226 ft | 497 kts | 98° |
| 2026-04-26 17:48 | 43.00205 | -76.98882 | 35258 ft | 496 kts | 98° |
| 2026-04-26 17:49 | 42.98788 | -76.89640 | 35253 ft | 497 kts | 98° |
| 2026-04-26 17:49 | 42.97367 | -76.80408 | 35259 ft | 496 kts | 99° |
| 2026-04-26 17:50 | 42.96286 | -76.75911 | 35285 ft | 501 kts | 110° |
| 2026-04-26 17:50 | 42.94848 | -76.71560 | 35278 ft | 502 kts | 111° |
| 2026-04-26 17:50 | 42.92017 | -76.62824 | 35243 ft | 502 kts | 111° |
| 2026-04-26 17:51 | 42.89230 | -76.54159 | 35238 ft | 502 kts | 111° |
| 2026-04-26 17:51 | 42.86427 | -76.45426 | 35257 ft | 502 kts | 111° |
| 2026-04-26 17:52 | 42.83626 | -76.36697 | 35231 ft | 502 kts | 111° |
| 2026-04-26 17:52 | 42.80821 | -76.27972 | 35216 ft | 502 kts | 111° |
| 2026-04-26 17:53 | 42.78014 | -76.19254 | 35229 ft | 502 kts | 111° |
| 2026-04-26 17:54 | 42.73788 | -76.06185 | 35195 ft | 503 kts | 111° |
| 2026-04-26 17:54 | 42.70967 | -75.97483 | 35203 ft | 503 kts | 111° |
| 2026-04-26 17:55 | 42.68157 | -75.88837 | 35205 ft | 503 kts | 111° |
| 2026-04-26 17:55 | 42.65325 | -75.80145 | 35196 ft | 503 kts | 111° |
| 2026-04-26 17:56 | 42.62486 | -75.71451 | 35183 ft | 504 kts | 111° |
| 2026-04-26 17:57 | 42.56792 | -75.54086 | 35191 ft | 503 kts | 111° |
| 2026-04-26 17:57 | 42.53940 | -75.45418 | 35185 ft | 503 kts | 111° |
| 2026-04-26 17:58 | 42.48219 | -75.28141 | 35197 ft | 502 kts | 111° |
| 2026-04-26 17:59 | 42.43673 | -75.15326 | 35197 ft | 504 kts | 114° |
| 2026-04-26 17:59 | 42.40547 | -75.06910 | 35188 ft | 504 kts | 114° |
| 2026-04-26 18:00 | 42.37417 | -74.98456 | 35184 ft | 502 kts | 115° |
| 2026-04-26 18:00 | 42.34291 | -74.90018 | 35186 ft | 502 kts | 115° |
| 2026-04-26 18:01 | 42.31161 | -74.81580 | 35186 ft | 502 kts | 115° |
| 2026-04-26 18:01 | 42.28024 | -74.73141 | 35185 ft | 502 kts | 115° |
| 2026-04-26 18:02 | 42.25947 | -74.67564 | 35181 ft | 502 kts | 115° |
| 2026-04-26 18:02 | 42.21745 | -74.56309 | 35184 ft | 502 kts | 115° |
| 2026-04-26 18:03 | 42.19130 | -74.49319 | 35184 ft | 502 kts | 115° |
| 2026-04-26 18:03 | 42.15473 | -74.39545 | 35174 ft | 502 kts | 115° |
| 2026-04-26 18:04 | 42.12830 | -74.32509 | 35186 ft | 501 kts | 116° |
| 2026-04-26 18:05 | 42.07494 | -74.20511 | 35196 ft | 502 kts | 123° |
| 2026-04-26 18:05 | 42.03586 | -74.12729 | 35168 ft | 502 kts | 123° |
| 2026-04-26 18:06 | 41.99676 | -74.04958 | 35176 ft | 501 kts | 123° |
| 2026-04-26 18:06 | 41.95769 | -73.97210 | 35169 ft | 499 kts | 124° |
| 2026-04-26 18:07 | 41.91867 | -73.89481 | 35168 ft | 500 kts | 124° |
| 2026-04-26 18:07 | 41.89888 | -73.85681 | 35041 ft | 490 kts | 128° |
| 2026-04-26 18:07 | 41.87452 | -73.82549 | 33793 ft | 484 kts | 148° |
| 2026-04-26 18:07 | 41.85499 | -73.81152 | 32888 ft | 478 kts | 161° |
| 2026-04-26 18:08 | 41.81203 | -73.80236 | 31179 ft | 463 kts | 189° |
| 2026-04-26 18:08 | 41.78069 | -73.80798 | 29933 ft | 459 kts | 192° |
| 2026-04-26 18:08 | 41.74882 | -73.81231 | 28512 ft | 460 kts | 189° |
| 2026-04-26 18:08 | 41.71690 | -73.81546 | 27095 ft | 460 kts | 187° |
| 2026-04-26 18:09 | 41.68495 | -73.81783 | 25677 ft | 460 kts | 186° |
| 2026-04-26 18:09 | 41.65325 | -73.82205 | 24276 ft | 455 kts | 194° |
| 2026-04-26 18:09 | 41.62238 | -73.83078 | 22742 ft | 452 kts | 197° |
| 2026-04-26 18:09 | 41.59164 | -73.83967 | 20907 ft | 455 kts | 195° |
| 2026-04-26 18:10 | 41.56120 | -73.84801 | 19319 ft | 438 kts | 195° |
| 2026-04-26 18:10 | 41.53171 | -73.85601 | 17618 ft | 426 kts | 194° |
| 2026-04-26 18:10 | 41.50303 | -73.86369 | 15858 ft | 415 kts | 194° |
| 2026-04-26 18:10 | 41.47502 | -73.87110 | 14143 ft | 406 kts | 193° |
| 2026-04-26 18:11 | 41.44760 | -73.87801 | 12294 ft | 396 kts | 189° |
| 2026-04-26 18:11 | 41.42076 | -73.87682 | 10659 ft | 389 kts | 165° |
| 2026-04-26 18:11 | 41.39755 | -73.86156 | 9674 ft | 359 kts | 141° |
| 2026-04-26 18:11 | 41.37935 | -73.84021 | 8907 ft | 331 kts | 138° |
| 2026-04-26 18:12 | 41.36206 | -73.82163 | 8781 ft | 318 kts | 140° |
| 2026-04-26 18:12 | 41.34457 | -73.80389 | 8436 ft | 310 kts | 141° |
| 2026-04-26 18:12 | 41.32760 | -73.78710 | 8213 ft | 299 kts | 141° |
| 2026-04-26 18:12 | 41.31105 | -73.77119 | 8130 ft | 286 kts | 142° |
| 2026-04-26 18:13 | 41.29496 | -73.75597 | 8113 ft | 284 kts | 142° |
| 2026-04-26 18:13 | 41.27880 | -73.74088 | 8157 ft | 284 kts | 143° |
| 2026-04-26 18:13 | 41.26245 | -73.72578 | 8188 ft | 287 kts | 143° |
| 2026-04-26 18:13 | 41.25155 | -73.71578 | 8196 ft | 287 kts | 143° |
| 2026-04-26 18:14 | 41.22946 | -73.69566 | 8194 ft | 288 kts | 143° |
| 2026-04-26 18:14 | 41.21288 | -73.68063 | 8179 ft | 289 kts | 143° |
| 2026-04-26 18:14 | 41.19630 | -73.66563 | 8173 ft | 287 kts | 143° |
| 2026-04-26 18:14 | 41.17977 | -73.65068 | 8181 ft | 288 kts | 143° |
| 2026-04-26 18:15 | 41.16323 | -73.63578 | 8167 ft | 287 kts | 143° |
| 2026-04-26 18:15 | 41.14670 | -73.62091 | 8168 ft | 287 kts | 143° |
| 2026-04-26 18:15 | 41.12983 | -73.60736 | 8180 ft | 289 kts | 155° |
| 2026-04-26 18:15 | 41.11004 | -73.60354 | 8197 ft | 292 kts | 187° |
| 2026-04-26 18:16 | 41.09105 | -73.61315 | 8195 ft | 294 kts | 211° |
| 2026-04-26 18:16 | 41.05652 | -73.64249 | 8216 ft | 297 kts | 213° |
| 2026-04-26 18:16 | 41.03908 | -73.65719 | 8187 ft | 295 kts | 213° |
| 2026-04-26 18:17 | 41.02176 | -73.67170 | 8180 ft | 293 kts | 213° |
| 2026-04-26 18:17 | 41.00439 | -73.68617 | 8182 ft | 295 kts | 212° |
| 2026-04-26 18:17 | 40.98699 | -73.70061 | 8180 ft | 296 kts | 213° |
| 2026-04-26 18:17 | 40.96956 | -73.71508 | 8169 ft | 295 kts | 213° |
| 2026-04-26 18:18 | 40.95221 | -73.72946 | 8162 ft | 294 kts | 212° |
| 2026-04-26 18:18 | 40.93485 | -73.74382 | 8155 ft | 294 kts | 212° |
| 2026-04-26 18:18 | 40.91769 | -73.75800 | 8146 ft | 294 kts | 212° |
| 2026-04-26 18:18 | 40.90031 | -73.77235 | 8145 ft | 294 kts | 212° |
| 2026-04-26 18:19 | 40.88287 | -73.78673 | 8164 ft | 295 kts | 212° |
| 2026-04-26 18:19 | 40.86536 | -73.80117 | 7933 ft | 299 kts | 212° |
| 2026-04-26 18:19 | 40.84789 | -73.81555 | 7663 ft | 292 kts | 212° |
| 2026-04-26 18:19 | 40.83085 | -73.82957 | 7413 ft | 286 kts | 212° |
| 2026-04-26 18:20 | 40.81431 | -73.84316 | 7334 ft | 272 kts | 212° |
| 2026-04-26 18:20 | 40.79867 | -73.85610 | 7287 ft | 258 kts | 215° |
| 2026-04-26 18:20 | 40.78626 | -73.87232 | 7171 ft | 247 kts | 239° |
| 2026-04-26 18:20 | 40.78176 | -73.88613 | 6907 ft | 249 kts | 261° |
| 2026-04-26 18:21 | 40.77920 | -73.91686 | 6254 ft | 259 kts | 269° |
| 2026-04-26 18:21 | 40.77796 | -73.94088 | 5738 ft | 266 kts | 268° |
| 2026-04-26 18:21 | 40.77631 | -73.96528 | 5402 ft | 264 kts | 266° |
| 2026-04-26 18:21 | 40.77449 | -73.98898 | 5276 ft | 256 kts | 266° |
| 2026-04-26 18:22 | 40.77264 | -74.01216 | 5196 ft | 253 kts | 266° |
| 2026-04-26 18:22 | 40.76883 | -74.03498 | 5162 ft | 259 kts | 243° |
| 2026-04-26 18:22 | 40.75655 | -74.05187 | 5141 ft | 258 kts | 206° |
| 2026-04-26 18:22 | 40.73991 | -74.06017 | 5177 ft | 257 kts | 198° |
| 2026-04-26 18:23 | 40.72316 | -74.06884 | 5177 ft | 257 kts | 201° |
| 2026-04-26 18:23 | 40.70710 | -74.07804 | 5154 ft | 248 kts | 202° |
| 2026-04-26 18:23 | 40.69124 | -74.08741 | 5158 ft | 251 kts | 203° |
| 2026-04-26 18:23 | 40.67520 | -74.09708 | 5160 ft | 255 kts | 203° |
| 2026-04-26 18:24 | 40.65899 | -74.10704 | 5173 ft | 259 kts | 204° |
| 2026-04-26 18:24 | 40.64286 | -74.11709 | 5182 ft | 260 kts | 204° |
| 2026-04-26 18:24 | 40.62637 | -74.12692 | 5169 ft | 260 kts | 196° |
| 2026-04-26 18:24 | 40.60877 | -74.12856 | 5079 ft | 252 kts | 166° |
| 2026-04-26 18:25 | 40.59315 | -74.11845 | 4663 ft | 249 kts | 130° |
| 2026-04-26 18:25 | 40.58300 | -74.10130 | 4748 ft | 229 kts | 121° |
| 2026-04-26 18:25 | 40.57380 | -74.08488 | 4960 ft | 220 kts | 122° |
| 2026-04-26 18:25 | 40.56565 | -74.06734 | 4585 ft | 231 kts | 109° |
| 2026-04-26 18:26 | 40.56208 | -74.04738 | 4612 ft | 217 kts | 84° |
| 2026-04-26 18:26 | 40.56817 | -74.02976 | 4177 ft | 223 kts | 41° |
| 2026-04-26 18:26 | 40.58261 | -74.02272 | 3882 ft | 221 kts | 9° |
| 2026-04-26 18:26 | 40.59735 | -74.02069 | 3772 ft | 205 kts | 11° |
| 2026-04-26 18:27 | 40.61045 | -74.01460 | 3432 ft | 198 kts | 29° |
| 2026-04-26 18:27 | 40.62212 | -74.00574 | 3236 ft | 189 kts | 31° |
| 2026-04-26 18:27 | 40.63310 | -73.99727 | 3208 ft | 173 kts | 34° |
| 2026-04-26 18:27 | 40.64359 | -73.98839 | 3293 ft | 179 kts | 35° |
| 2026-04-26 18:28 | 40.65387 | -73.97957 | 3305 ft | 175 kts | 35° |
| 2026-04-26 18:28 | 40.66409 | -73.97047 | 3180 ft | 180 kts | 36° |
| 2026-04-26 18:28 | 40.67461 | -73.96143 | 2943 ft | 182 kts | 32° |
| 2026-04-26 18:28 | 40.68556 | -73.95293 | 2668 ft | 184 kts | 31° |
| 2026-04-26 18:29 | 40.69662 | -73.94442 | 2414 ft | 184 kts | 31° |
| 2026-04-26 18:29 | 40.70767 | -73.93601 | 2170 ft | 180 kts | 32° |
| 2026-04-26 18:29 | 40.71740 | -73.92771 | 1940 ft | 156 kts | 35° |
| 2026-04-26 18:29 | 40.72594 | -73.92019 | 1654 ft | 138 kts | 34° |
| 2026-04-26 18:30 | 40.73374 | -73.91361 | 1351 ft | 134 kts | 33° |
| 2026-04-26 18:30 | 40.74157 | -73.90720 | 1108 ft | 131 kts | 33° |
| 2026-04-26 18:30 | 40.74906 | -73.90091 | 827 ft | 127 kts | 36° |
| 2026-04-26 18:30 | 40.75654 | -73.89460 | 490 ft | 127 kts | 36° |
| 2026-04-26 18:31 | 40.76392 | -73.88854 | 227 ft | 123 kts | 36° |
| 2026-04-26 18:31 | 40.77104 | -73.88264 | 34 ft | 114 kts | 34° |
| 2026-04-26 18:31 | 40.77685 | -73.87781 | 22 ft | 78 kts | 32° |
| 2026-04-26 18:31 | 40.77930 | -73.87576 | 15 ft | 19 kts | 33° |
| 2026-04-26 18:32 | 40.77949 | -73.87501 | 15 ft | 9 kts | 123° |
| 2026-04-26 18:32 | 40.77927 | -73.87453 | 13 ft | 3 kts | 123° |
| 2026-04-26 18:32 | 40.77923 | -73.87445 | 13 ft | 3 kts | 123° |
| 2026-04-26 18:32 | 40.77889 | -73.87376 | 12 ft | 12 kts | 122° |
| 2026-04-26 18:33 | 40.77839 | -73.87269 | 11 ft | 15 kts | 122° |
| 2026-04-26 18:33 | 40.77780 | -73.87147 | 11 ft | 17 kts | 122° |
| 2026-04-26 18:33 | 40.77718 | -73.87013 | 11 ft | 19 kts | 121° |
| 2026-04-26 18:33 | 40.77646 | -73.86865 | 11 ft | 19 kts | 122° |
| 2026-04-26 18:34 | 40.77581 | -73.86730 | 10 ft | 18 kts | 122° |
| 2026-04-26 18:34 | 40.77512 | -73.86584 | 10 ft | 20 kts | 122° |
| 2026-04-26 18:34 | 40.77437 | -73.86427 | 10 ft | 21 kts | 122° |
| 2026-04-26 18:34 | 40.77357 | -73.86260 | 11 ft | 22 kts | 122° |
| 2026-04-26 18:35 | 40.77273 | -73.86083 | 10 ft | 23 kts | 122° |
| 2026-04-26 18:35 | 40.77198 | -73.85928 | 11 ft | 18 kts | 122° |
| 2026-04-26 18:35 | 40.77116 | -73.85859 | 9 ft | 12 kts | 205° |
| 2026-04-26 18:35 | 40.77062 | -73.85901 | 13 ft | 3 kts | 171° |
| 2026-04-26 18:36 | 40.77029 | -73.85890 | 16 ft | 8 kts | 165° |
| 2026-04-26 18:36 | 40.76957 | -73.85882 | 17 ft | 12 kts | 195° |
| 2026-04-26 18:36 | 40.76887 | -73.85947 | 18 ft | 14 kts | 220° |
| 2026-04-26 18:36 | 40.76818 | -73.86023 | 17 ft | 11 kts | 198° |
| 2026-04-26 18:37 | 40.76786 | -73.86012 | 18 ft | 2 kts | 126° |
| 2026-04-26 18:37 | 40.76779 | -73.86000 | 17 ft | 1 kts | 131° |
| 2026-04-26 18:37 | 40.76778 | -73.85999 | 17 ft | 0 kts | 131° |